sensor_id;sensor_type;location;lat;lon;timestamp;pressure;altitude;pressure_sealevel;temperature;humidity
8140;BME280;4111;50.972;7.072;2023-03-12T00:01:56;100777.44;;;2.76;77.06
8140;BME280;4111;50.972;7.072;2023-03-12T00:04:25;100778.47;;;2.75;77.30
8140;BME280;4111;50.972;7.072;2023-03-12T00:06:52;100771.69;;;2.79;77.52
8140;BME280;4111;50.972;7.072;2023-03-12T00:09:18;100782.22;;;2.81;77.50
8140;BME280;4111;50.972;7.072;2023-03-12T00:11:45;100787.91;;;2.92;76.86
8140;BME280;4111;50.972;7.072;2023-03-12T00:14:11;100776.09;;;2.87;76.88
8140;BME280;4111;50.972;7.072;2023-03-12T00:16:37;100773.78;;;2.84;76.82
8140;BME280;4111;50.972;7.072;2023-03-12T00:19:04;100775.19;;;2.80;77.39
8140;BME280;4111;50.972;7.072;2023-03-12T00:21:30;100771.28;;;2.82;77.40
8140;BME280;4111;50.972;7.072;2023-03-12T00:23:57;100768.22;;;2.85;77.29
8140;BME280;4111;50.972;7.072;2023-03-12T00:26:23;100774.84;;;2.89;77.24
8140;BME280;4111;50.972;7.072;2023-03-12T00:28:50;100770.28;;;2.83;77.59
8140;BME280;4111;50.972;7.072;2023-03-12T00:31:25;100755.84;;;2.84;77.42
8140;BME280;4111;50.972;7.072;2023-03-12T00:33:54;100765.38;;;2.87;77.20
8140;BME280;4111;50.972;7.072;2023-03-12T00:36:22;100763.75;;;2.92;76.72
8140;BME280;4111;50.972;7.072;2023-03-12T00:38:52;100758.81;;;2.96;75.73
8140;BME280;4111;50.972;7.072;2023-03-12T00:41:19;100760.91;;;3.01;75.57
8140;BME280;4111;50.972;7.072;2023-03-12T00:43:47;100755.94;;;2.97;74.91
8140;BME280;4111;50.972;7.072;2023-03-12T00:46:14;100749.16;;;3.02;73.97
8140;BME280;4111;50.972;7.072;2023-03-12T00:48:41;100749.00;;;3.10;73.62
8140;BME280;4111;50.972;7.072;2023-03-12T00:51:08;100749.78;;;3.04;73.18
8140;BME280;4111;50.972;7.072;2023-03-12T00:53:35;100741.09;;;3.02;73.05
8140;BME280;4111;50.972;7.072;2023-03-12T00:56:02;100743.56;;;2.96;72.83
8140;BME280;4111;50.972;7.072;2023-03-12T00:58:29;100745.63;;;2.94;72.30
8140;BME280;4111;50.972;7.072;2023-03-12T01:00:56;100744.81;;;3.01;72.51
8140;BME280;4111;50.972;7.072;2023-03-12T01:03:22;100742.78;;;3.03;72.04
8140;BME280;4111;50.972;7.072;2023-03-12T01:05:49;100738.59;;;3.00;71.75
8140;BME280;4111;50.972;7.072;2023-03-12T01:08:20;100741.50;;;2.98;71.18
8140;BME280;4111;50.972;7.072;2023-03-12T01:10:47;100753.09;;;3.06;71.19
8140;BME280;4111;50.972;7.072;2023-03-12T01:13:14;100747.69;;;2.99;70.68
8140;BME280;4111;50.972;7.072;2023-03-12T01:15:40;100737.78;;;3.00;70.52
8140;BME280;4111;50.972;7.072;2023-03-12T01:18:07;100741.50;;;2.98;70.62
8140;BME280;4111;50.972;7.072;2023-03-12T01:20:33;100748.38;;;3.08;70.38
8140;BME280;4111;50.972;7.072;2023-03-12T01:23:00;100740.75;;;3.11;70.05
8140;BME280;4111;50.972;7.072;2023-03-12T01:25:26;100734.09;;;3.01;69.74
8140;BME280;4111;50.972;7.072;2023-03-12T01:27:52;100732.69;;;3.05;69.59
8140;BME280;4111;50.972;7.072;2023-03-12T01:30:19;100733.94;;;3.09;69.40
8140;BME280;4111;50.972;7.072;2023-03-12T01:32:45;100727.94;;;3.07;69.57
8140;BME280;4111;50.972;7.072;2023-03-12T01:35:12;100721.25;;;2.96;68.96
8140;BME280;4111;50.972;7.072;2023-03-12T01:37:38;100720.44;;;2.95;68.54
8140;BME280;4111;50.972;7.072;2023-03-12T01:40:05;100712.81;;;2.99;68.70
8140;BME280;4111;50.972;7.072;2023-03-12T01:42:31;100717.59;;;3.04;68.68
8140;BME280;4111;50.972;7.072;2023-03-12T01:45:00;100706.47;;;3.07;68.65
8140;BME280;4111;50.972;7.072;2023-03-12T01:47:27;100710.41;;;3.11;68.43
8140;BME280;4111;50.972;7.072;2023-03-12T01:49:58;100706.28;;;3.08;68.61
8140;BME280;4111;50.972;7.072;2023-03-12T01:55:21;100704.41;;;3.02;68.46
8140;BME280;4111;50.972;7.072;2023-03-12T01:57:51;100701.28;;;2.98;68.49
8140;BME280;4111;50.972;7.072;2023-03-12T02:00:21;100701.50;;;3.04;68.24
8140;BME280;4111;50.972;7.072;2023-03-12T02:02:50;100695.13;;;3.05;68.38
8140;BME280;4111;50.972;7.072;2023-03-12T02:05:47;100688.31;;;3.09;67.98
8140;BME280;4111;50.972;7.072;2023-03-12T02:08:17;100682.50;;;2.98;68.09
8140;BME280;4111;50.972;7.072;2023-03-12T02:10:44;100683.75;;;3.03;68.10
8140;BME280;4111;50.972;7.072;2023-03-12T02:13:11;100661.69;;;3.01;68.27
8140;BME280;4111;50.972;7.072;2023-03-12T02:15:38;100662.31;;;3.03;68.02
8140;BME280;4111;50.972;7.072;2023-03-12T02:18:08;100664.75;;;2.97;68.03
8140;BME280;4111;50.972;7.072;2023-03-12T02:23:12;100662.31;;;3.03;68.16
8140;BME280;4111;50.972;7.072;2023-03-12T02:25:45;100661.09;;;3.12;68.69
8140;BME280;4111;50.972;7.072;2023-03-12T02:28:14;100655.34;;;3.15;68.59
8140;BME280;4111;50.972;7.072;2023-03-12T02:30:45;100643.81;;;3.21;68.51
8140;BME280;4111;50.972;7.072;2023-03-12T02:33:12;100650.66;;;3.30;68.64
8140;BME280;4111;50.972;7.072;2023-03-12T02:35:40;100655.59;;;3.33;68.34
8140;BME280;4111;50.972;7.072;2023-03-12T02:38:32;100656.66;;;3.32;68.13
8140;BME280;4111;50.972;7.072;2023-03-12T02:41:01;100654.97;;;3.31;68.08
8140;BME280;4111;50.972;7.072;2023-03-12T02:43:30;100661.59;;;3.29;68.10
8140;BME280;4111;50.972;7.072;2023-03-12T02:45:56;100658.28;;;3.33;68.04
8140;BME280;4111;50.972;7.072;2023-03-12T02:48:23;100656.47;;;3.41;68.16
8140;BME280;4111;50.972;7.072;2023-03-12T02:50:49;100654.66;;;3.48;68.24
8140;BME280;4111;50.972;7.072;2023-03-12T02:53:16;100646.97;;;3.45;67.65
8140;BME280;4111;50.972;7.072;2023-03-12T02:55:42;100644.72;;;3.42;67.65
8140;BME280;4111;50.972;7.072;2023-03-12T02:58:08;100646.97;;;3.38;67.49
8140;BME280;4111;50.972;7.072;2023-03-12T03:00:35;100657.09;;;3.43;67.76
8140;BME280;4111;50.972;7.072;2023-03-12T03:03:02;100656.28;;;3.49;67.51
8140;BME280;4111;50.972;7.072;2023-03-12T03:05:29;100653.84;;;3.54;67.83
8140;BME280;4111;50.972;7.072;2023-03-12T03:07:55;100650.72;;;3.50;67.93
8140;BME280;4111;50.972;7.072;2023-03-12T03:10:22;100651.34;;;3.52;67.96
8140;BME280;4111;50.972;7.072;2023-03-12T03:12:48;100655.91;;;3.52;68.52
8140;BME280;4111;50.972;7.072;2023-03-12T03:15:15;100640.59;;;3.52;68.34
8140;BME280;4111;50.972;7.072;2023-03-12T03:17:41;100636.47;;;3.50;68.57
8140;BME280;4111;50.972;7.072;2023-03-12T03:20:08;100634.81;;;3.49;68.05
8140;BME280;4111;50.972;7.072;2023-03-12T03:22:37;100640.59;;;3.46;67.99
8140;BME280;4111;50.972;7.072;2023-03-12T03:25:06;100639.34;;;3.48;67.74
8140;BME280;4111;50.972;7.072;2023-03-12T03:27:32;100647.59;;;3.47;67.96
8140;BME280;4111;50.972;7.072;2023-03-12T03:29:59;100632.75;;;3.44;67.70
8140;BME280;4111;50.972;7.072;2023-03-12T03:32:26;100618.47;;;3.37;67.76
8140;BME280;4111;50.972;7.072;2023-03-12T03:34:52;100602.59;;;3.42;67.84
8140;BME280;4111;50.972;7.072;2023-03-12T03:37:19;100614.53;;;3.40;67.77
8140;BME280;4111;50.972;7.072;2023-03-12T03:39:45;100621.72;;;3.26;67.82
8140;BME280;4111;50.972;7.072;2023-03-12T03:42:11;100615.78;;;3.30;67.85
8140;BME280;4111;50.972;7.072;2023-03-12T03:44:38;100620.09;;;3.31;67.89
8140;BME280;4111;50.972;7.072;2023-03-12T03:47:04;100618.66;;;3.35;67.50
8140;BME280;4111;50.972;7.072;2023-03-12T03:49:31;100619.50;;;3.36;67.79
8140;BME280;4111;50.972;7.072;2023-03-12T03:51:57;100627.75;;;3.34;67.18
8140;BME280;4111;50.972;7.072;2023-03-12T03:54:23;100631.44;;;3.33;67.35
8140;BME280;4111;50.972;7.072;2023-03-12T03:56:50;100617.66;;;3.36;67.53
8140;BME280;4111;50.972;7.072;2023-03-12T03:59:16;100619.91;;;3.40;67.27
8140;BME280;4111;50.972;7.072;2023-03-12T04:01:43;100615.78;;;3.37;67.53
8140;BME280;4111;50.972;7.072;2023-03-12T04:04:09;100617.66;;;3.36;67.44
8140;BME280;4111;50.972;7.072;2023-03-12T04:06:35;100610.03;;;3.40;67.11
8140;BME280;4111;50.972;7.072;2023-03-12T04:09:02;100606.72;;;3.45;67.43
8140;BME280;4111;50.972;7.072;2023-03-12T04:11:29;100612.28;;;3.43;66.96
8140;BME280;4111;50.972;7.072;2023-03-12T04:13:56;100608.78;;;3.49;67.14
8140;BME280;4111;50.972;7.072;2023-03-12T04:16:22;100616.25;;;3.54;67.09
8140;BME280;4111;50.972;7.072;2023-03-12T04:18:49;100609.22;;;3.53;66.85
8140;BME280;4111;50.972;7.072;2023-03-12T04:21:16;100602.22;;;3.52;66.52
8140;BME280;4111;50.972;7.072;2023-03-12T04:23:42;100608.81;;;3.56;66.63
8140;BME280;4111;50.972;7.072;2023-03-12T04:26:09;100611.06;;;3.59;66.33
8140;BME280;4111;50.972;7.072;2023-03-12T04:28:36;100606.75;;;3.58;66.33
8140;BME280;4111;50.972;7.072;2023-03-12T04:31:04;100603.44;;;3.56;66.22
8140;BME280;4111;50.972;7.072;2023-03-12T04:33:35;100598.47;;;3.46;66.40
8140;BME280;4111;50.972;7.072;2023-03-12T04:36:02;100581.13;;;3.49;66.34
8140;BME280;4111;50.972;7.072;2023-03-12T04:38:29;100587.34;;;3.56;66.36
8140;BME280;4111;50.972;7.072;2023-03-12T04:41:00;100585.28;;;3.58;66.47
8140;BME280;4111;50.972;7.072;2023-03-12T04:43:28;100590.22;;;3.61;66.41
8140;BME280;4111;50.972;7.072;2023-03-12T04:45:54;100590.44;;;3.60;66.37
8140;BME280;4111;50.972;7.072;2023-03-12T04:48:21;100591.66;;;3.57;66.29
8140;BME280;4111;50.972;7.072;2023-03-12T04:50:48;100588.16;;;3.50;66.28
8140;BME280;4111;50.972;7.072;2023-03-12T04:53:15;100585.88;;;3.53;66.20
8140;BME280;4111;50.972;7.072;2023-03-12T04:55:42;100590.22;;;3.48;66.71
8140;BME280;4111;50.972;7.072;2023-03-12T04:58:08;100585.69;;;3.55;66.22
8140;BME280;4111;50.972;7.072;2023-03-12T05:00:35;100581.56;;;3.46;66.21
8140;BME280;4111;50.972;7.072;2023-03-12T05:03:01;100584.41;;;3.37;66.47
8140;BME280;4111;50.972;7.072;2023-03-12T05:05:28;100584.41;;;3.37;66.84
8140;BME280;4111;50.972;7.072;2023-03-12T05:07:54;100577.19;;;3.38;67.28
8140;BME280;4111;50.972;7.072;2023-03-12T05:10:21;100586.47;;;3.35;68.02
8140;BME280;4111;50.972;7.072;2023-03-12T05:12:47;100583.16;;;3.33;68.73
8140;BME280;4111;50.972;7.072;2023-03-12T05:15:13;100587.69;;;3.26;69.92
8140;BME280;4111;50.972;7.072;2023-03-12T05:17:43;100575.09;;;3.20;70.54
8140;BME280;4111;50.972;7.072;2023-03-12T05:20:10;100589.94;;;3.16;71.56
8140;BME280;4111;50.972;7.072;2023-03-12T05:22:37;100566.81;;;3.15;72.54
8140;BME280;4111;50.972;7.072;2023-03-12T05:25:04;100568.03;;;3.12;73.07
8140;BME280;4111;50.972;7.072;2023-03-12T05:27:31;100565.78;;;3.16;73.78
8140;BME280;4111;50.972;7.072;2023-03-12T05:29:58;100559.38;;;3.17;74.25
8140;BME280;4111;50.972;7.072;2023-03-12T05:32:24;100555.84;;;3.10;74.68
8140;BME280;4111;50.972;7.072;2023-03-12T05:34:51;100543.03;;;2.98;75.97
8140;BME280;4111;50.972;7.072;2023-03-12T05:37:17;100537.66;;;2.98;76.89
8140;BME280;4111;50.972;7.072;2023-03-12T05:39:43;100546.09;;;2.95;77.08
8140;BME280;4111;50.972;7.072;2023-03-12T05:42:13;100539.88;;;2.88;78.02
8140;BME280;4111;50.972;7.072;2023-03-12T05:44:40;100545.47;;;2.93;78.63
8140;BME280;4111;50.972;7.072;2023-03-12T05:47:07;100528.13;;;2.89;79.02
8140;BME280;4111;50.972;7.072;2023-03-12T05:49:33;100524.00;;;2.87;79.67
8140;BME280;4111;50.972;7.072;2023-03-12T05:52:00;100527.91;;;2.84;80.38
8140;BME280;4111;50.972;7.072;2023-03-12T05:54:26;100528.34;;;2.88;80.62
8140;BME280;4111;50.972;7.072;2023-03-12T05:56:54;100523.78;;;2.88;81.26
8140;BME280;4111;50.972;7.072;2023-03-12T05:59:21;100510.81;;;2.85;81.80
8140;BME280;4111;50.972;7.072;2023-03-12T06:01:48;100510.81;;;2.85;82.09
8140;BME280;4111;50.972;7.072;2023-03-12T06:04:14;100507.06;;;2.86;82.44
8140;BME280;4111;50.972;7.072;2023-03-12T06:06:40;100501.94;;;2.91;83.15
8140;BME280;4111;50.972;7.072;2023-03-12T06:09:07;100504.00;;;2.83;84.02
8140;BME280;4111;50.972;7.072;2023-03-12T06:11:34;100493.28;;;2.89;84.11
8140;BME280;4111;50.972;7.072;2023-03-12T06:14:00;100490.41;;;2.91;84.86
8140;BME280;4111;50.972;7.072;2023-03-12T06:16:27;100484.81;;;2.79;85.54
8140;BME280;4111;50.972;7.072;2023-03-12T06:18:57;100483.56;;;2.75;86.48
8140;BME280;4111;50.972;7.072;2023-03-12T06:21:26;100481.91;;;2.81;87.71
8140;BME280;4111;50.972;7.072;2023-03-12T06:23:54;100490.38;;;2.84;87.72
8140;BME280;4111;50.972;7.072;2023-03-12T06:26:21;100481.31;;;2.92;88.09
8140;BME280;4111;50.972;7.072;2023-03-12T06:28:49;100488.53;;;2.91;88.55
8140;BME280;4111;50.972;7.072;2023-03-12T06:31:16;100490.22;;;2.92;88.97
8140;BME280;4111;50.972;7.072;2023-03-12T06:33:43;100486.09;;;2.96;89.25
8140;BME280;4111;50.972;7.072;2023-03-12T06:36:10;100480.31;;;3.00;89.73
8140;BME280;4111;50.972;7.072;2023-03-12T06:38:37;100481.78;;;3.02;89.63
8140;BME280;4111;50.972;7.072;2023-03-12T06:41:15;100488.97;;;3.02;90.12
8140;BME280;4111;50.972;7.072;2023-03-12T06:43:43;100476.41;;;3.02;90.31
8140;BME280;4111;50.972;7.072;2023-03-12T06:46:15;100486.91;;;3.04;90.25
8140;BME280;4111;50.972;7.072;2023-03-12T06:48:42;100485.66;;;3.00;90.78
8140;BME280;4111;50.972;7.072;2023-03-12T06:51:13;100495.34;;;2.94;91.76
8140;BME280;4111;50.972;7.072;2023-03-12T06:53:40;100488.59;;;3.05;91.72
8140;BME280;4111;50.972;7.072;2023-03-12T06:56:08;100483.22;;;3.11;91.61
8140;BME280;4111;50.972;7.072;2023-03-12T06:58:35;100477.22;;;3.09;91.50
8140;BME280;4111;50.972;7.072;2023-03-12T07:01:02;100484.03;;;3.12;91.70
8140;BME280;4111;50.972;7.072;2023-03-12T07:03:28;100489.81;;;3.09;91.79
8140;BME280;4111;50.972;7.072;2023-03-12T07:05:56;100494.16;;;3.16;91.75
8140;BME280;4111;50.972;7.072;2023-03-12T07:08:23;100492.31;;;3.17;91.77
8140;BME280;4111;50.972;7.072;2023-03-12T07:10:50;100485.72;;;3.26;91.86
8140;BME280;4111;50.972;7.072;2023-03-12T07:13:16;100490.25;;;3.19;91.82
8140;BME280;4111;50.972;7.072;2023-03-12T07:15:43;100492.72;;;3.27;91.47
8140;BME280;4111;50.972;7.072;2023-03-12T07:18:11;100499.56;;;3.36;91.31
8140;BME280;4111;50.972;7.072;2023-03-12T07:20:40;100498.31;;;3.39;91.45
8140;BME280;4111;50.972;7.072;2023-03-12T07:23:07;100498.94;;;3.34;91.28
8140;BME280;4111;50.972;7.072;2023-03-12T07:25:35;100491.09;;;3.40;91.17
8140;BME280;4111;50.972;7.072;2023-03-12T07:28:03;100490.69;;;3.43;91.06
8140;BME280;4111;50.972;7.072;2023-03-12T07:30:29;100487.59;;;3.39;90.99
8140;BME280;4111;50.972;7.072;2023-03-12T07:33:00;100483.25;;;3.38;91.03
8140;BME280;4111;50.972;7.072;2023-03-12T07:35:28;100488.84;;;3.36;91.19
8140;BME280;4111;50.972;7.072;2023-03-12T07:37:54;100488.41;;;3.40;91.29
8140;BME280;4111;50.972;7.072;2023-03-12T07:40:21;100499.78;;;3.42;91.31
8140;BME280;4111;50.972;7.072;2023-03-12T07:42:49;100485.72;;;3.53;91.27
8140;BME280;4111;50.972;7.072;2023-03-12T07:45:17;100488.63;;;3.45;91.27
8140;BME280;4111;50.972;7.072;2023-03-12T07:47:44;100482.63;;;3.43;91.50
8140;BME280;4111;50.972;7.072;2023-03-12T07:50:11;100491.31;;;3.45;91.63
8140;BME280;4111;50.972;7.072;2023-03-12T07:52:38;100480.34;;;3.53;91.92
8140;BME280;4111;50.972;7.072;2023-03-12T07:55:05;100482.66;;;3.56;91.91
8140;BME280;4111;50.972;7.072;2023-03-12T07:57:32;100479.75;;;3.57;91.69
8140;BME280;4111;50.972;7.072;2023-03-12T07:59:58;100482.22;;;3.59;91.97
8140;BME280;4111;50.972;7.072;2023-03-12T08:02:25;100488.22;;;3.68;91.77
8140;BME280;4111;50.972;7.072;2023-03-12T08:04:51;100483.69;;;3.62;91.96
8140;BME280;4111;50.972;7.072;2023-03-12T08:07:18;100472.94;;;3.62;91.89
8140;BME280;4111;50.972;7.072;2023-03-12T08:09:45;100473.31;;;3.65;91.98
8140;BME280;4111;50.972;7.072;2023-03-12T08:12:14;100469.63;;;3.66;92.29
8140;BME280;4111;50.972;7.072;2023-03-12T08:14:41;100477.47;;;3.68;91.95
8140;BME280;4111;50.972;7.072;2023-03-12T08:17:07;100480.78;;;3.70;92.28
8140;BME280;4111;50.972;7.072;2023-03-12T08:19:34;100470.03;;;3.76;91.99
8140;BME280;4111;50.972;7.072;2023-03-12T08:22:00;100473.31;;;3.78;91.98
8140;BME280;4111;50.972;7.072;2023-03-12T08:24:27;100481.59;;;3.77;92.11
8140;BME280;4111;50.972;7.072;2023-03-12T08:26:53;100482.63;;;3.83;92.19
8140;BME280;4111;50.972;7.072;2023-03-12T08:29:19;100485.31;;;3.83;92.19
8140;BME280;4111;50.972;7.072;2023-03-12T08:31:46;100480.97;;;3.82;92.28
8140;BME280;4111;50.972;7.072;2023-03-12T08:34:29;100484.47;;;3.89;92.49
8140;BME280;4111;50.972;7.072;2023-03-12T08:36:56;100486.53;;;4.00;92.52
8140;BME280;4111;50.972;7.072;2023-03-12T08:39:22;100485.69;;;3.93;92.93
8140;BME280;4111;50.972;7.072;2023-03-12T08:41:48;100483.66;;;3.95;93.25
8140;BME280;4111;50.972;7.072;2023-03-12T08:44:16;100485.69;;;4.06;93.71
8140;BME280;4111;50.972;7.072;2023-03-12T08:46:43;100485.44;;;4.14;93.90
8140;BME280;4111;50.972;7.072;2023-03-12T08:49:09;100479.50;;;4.06;94.43
8140;BME280;4111;50.972;7.072;2023-03-12T08:51:35;100482.19;;;4.06;95.49
8140;BME280;4111;50.972;7.072;2023-03-12T08:54:02;100472.44;;;4.11;95.65
8140;BME280;4111;50.972;7.072;2023-03-12T08:56:30;100469.34;;;4.14;96.83
8140;BME280;4111;50.972;7.072;2023-03-12T08:58:58;100466.44;;;4.16;97.44
8140;BME280;4111;50.972;7.072;2023-03-12T09:01:24;100463.75;;;4.16;98.13
8140;BME280;4111;50.972;7.072;2023-03-12T09:03:51;100461.06;;;4.23;98.52
8140;BME280;4111;50.972;7.072;2023-03-12T09:06:20;100461.22;;;4.28;99.04
8140;BME280;4111;50.972;7.072;2023-03-12T09:08:46;100462.47;;;4.32;99.29
8140;BME280;4111;50.972;7.072;2023-03-12T09:11:13;100454.59;;;4.37;100.00
8140;BME280;4111;50.972;7.072;2023-03-12T09:13:40;100459.53;;;4.40;100.00
8140;BME280;4111;50.972;7.072;2023-03-12T09:16:27;100460.16;;;4.42;100.00
8140;BME280;4111;50.972;7.072;2023-03-12T09:18:53;100459.13;;;4.43;100.00
8140;BME280;4111;50.972;7.072;2023-03-12T09:21:20;100468.22;;;4.42;100.00
8140;BME280;4111;50.972;7.072;2023-03-12T09:23:46;100466.59;;;4.34;100.00
8140;BME280;4111;50.972;7.072;2023-03-12T09:26:13;100468.25;;;4.35;100.00
8140;BME280;4111;50.972;7.072;2023-03-12T09:28:39;100469.91;;;4.30;100.00
8140;BME280;4111;50.972;7.072;2023-03-12T09:31:07;100470.72;;;4.37;100.00
8140;BME280;4111;50.972;7.072;2023-03-12T09:33:34;100480.63;;;4.43;100.00
8140;BME280;4111;50.972;7.072;2023-03-12T09:36:01;100484.13;;;4.44;100.00
8140;BME280;4111;50.972;7.072;2023-03-12T09:38:28;100473.16;;;4.45;100.00
8140;BME280;4111;50.972;7.072;2023-03-12T09:40:57;100472.75;;;4.48;100.00
8140;BME280;4111;50.972;7.072;2023-03-12T09:45:50;100470.44;;;4.59;100.00
8140;BME280;4111;50.972;7.072;2023-03-12T09:51:20;100472.69;;;4.62;100.00
8140;BME280;4111;50.972;7.072;2023-03-12T09:53:53;100475.97;;;4.64;100.00
8140;BME280;4111;50.972;7.072;2023-03-12T09:56:21;100475.16;;;4.63;100.00
8140;BME280;4111;50.972;7.072;2023-03-12T09:58:48;100485.06;;;4.69;100.00
8140;BME280;4111;50.972;7.072;2023-03-12T10:01:36;100475.94;;;4.77;100.00
8140;BME280;4111;50.972;7.072;2023-03-12T10:07:01;100477.16;;;4.81;100.00
8140;BME280;4111;50.972;7.072;2023-03-12T10:12:19;100476.13;;;4.82;100.00
8140;BME280;4111;50.972;7.072;2023-03-12T10:15:00;100475.41;;;4.93;100.00
8140;BME280;4111;50.972;7.072;2023-03-12T10:17:41;100458.03;;;4.96;100.00
8140;BME280;4111;50.972;7.072;2023-03-12T10:23:21;100467.00;;;5.15;100.00
8140;BME280;4111;50.972;7.072;2023-03-12T10:28:52;100463.72;;;5.13;100.00
8140;BME280;4111;50.972;7.072;2023-03-12T10:31:25;100463.22;;;5.23;100.00
8140;BME280;4111;50.972;7.072;2023-03-12T10:33:58;100460.06;;;5.32;100.00
8140;BME280;4111;50.972;7.072;2023-03-12T10:36:33;100466.81;;;5.42;100.00
8140;BME280;4111;50.972;7.072;2023-03-12T10:39:03;100475.44;;;5.50;100.00
8140;BME280;4111;50.972;7.072;2023-03-12T10:41:30;100481.66;;;5.51;100.00
8140;BME280;4111;50.972;7.072;2023-03-12T10:44:05;100489.31;;;5.54;100.00
8140;BME280;4111;50.972;7.072;2023-03-12T10:51:53;100479.69;;;5.65;100.00
8140;BME280;4111;50.972;7.072;2023-03-12T10:56:58;100483.13;;;5.72;100.00
8140;BME280;4111;50.972;7.072;2023-03-12T10:59:28;100485.16;;;5.76;100.00
8140;BME280;4111;50.972;7.072;2023-03-12T11:01:56;100491.31;;;5.84;100.00
8140;BME280;4111;50.972;7.072;2023-03-12T11:04:30;100489.22;;;5.86;100.00
8140;BME280;4111;50.972;7.072;2023-03-12T11:09:33;100485.56;;;6.05;100.00
8140;BME280;4111;50.972;7.072;2023-03-12T11:11:59;100480.94;;;6.12;100.00
8140;BME280;4111;50.972;7.072;2023-03-12T11:14:28;100493.13;;;6.15;100.00
8140;BME280;4111;50.972;7.072;2023-03-12T11:16:57;100483.63;;;6.12;100.00
8140;BME280;4111;50.972;7.072;2023-03-12T11:19:42;100486.25;;;6.19;100.00
8140;BME280;4111;50.972;7.072;2023-03-12T11:22:09;100478.38;;;6.18;100.00
8140;BME280;4111;50.972;7.072;2023-03-12T11:24:55;100475.25;;;6.21;100.00
8140;BME280;4111;50.972;7.072;2023-03-12T11:27:43;100474.34;;;6.27;100.00
8140;BME280;4111;50.972;7.072;2023-03-12T11:30:15;100480.72;;;6.32;100.00
8140;BME280;4111;50.972;7.072;2023-03-12T11:32:46;100481.09;;;6.36;100.00
8140;BME280;4111;50.972;7.072;2023-03-12T11:35:24;100473.72;;;6.43;100.00
8140;BME280;4111;50.972;7.072;2023-03-12T11:43:42;100467.06;;;6.64;100.00
8140;BME280;4111;50.972;7.072;2023-03-12T11:46:20;100468.41;;;6.73;100.00
8140;BME280;4111;50.972;7.072;2023-03-12T11:49:13;100469.63;;;6.89;100.00
8140;BME280;4111;50.972;7.072;2023-03-12T11:51:52;100462.38;;;7.02;100.00
8140;BME280;4111;50.972;7.072;2023-03-12T11:59:52;100464.81;;;7.33;100.00
8140;BME280;4111;50.972;7.072;2023-03-12T12:18:47;100456.19;;;8.02;100.00
8140;BME280;4111;50.972;7.072;2023-03-12T12:21:40;100441.09;;;8.18;100.00
8140;BME280;4111;50.972;7.072;2023-03-12T12:27:04;100441.72;;;8.61;100.00
8140;BME280;4111;50.972;7.072;2023-03-12T12:33:05;100435.22;;;8.90;100.00
8140;BME280;4111;50.972;7.072;2023-03-12T12:35:36;100432.72;;;9.01;100.00
8140;BME280;4111;50.972;7.072;2023-03-12T12:40:54;100433.25;;;9.31;100.00
8140;BME280;4111;50.972;7.072;2023-03-12T12:43:36;100439.81;;;9.52;100.00
8140;BME280;4111;50.972;7.072;2023-03-12T12:46:07;100424.03;;;9.66;100.00
8140;BME280;4111;50.972;7.072;2023-03-12T12:51:46;100421.34;;;10.05;100.00
8140;BME280;4111;50.972;7.072;2023-03-12T12:55:19;100403.88;;;10.18;100.00
8140;BME280;4111;50.972;7.072;2023-03-12T12:57:22;100414.84;;;10.28;100.00
8140;BME280;4111;50.972;7.072;2023-03-12T13:00:01;100409.59;;;10.39;100.00
8140;BME280;4111;50.972;7.072;2023-03-12T13:02:31;100408.03;;;10.48;100.00
8140;BME280;4111;50.972;7.072;2023-03-12T13:04:59;100400.78;;;10.54;100.00
8140;BME280;4111;50.972;7.072;2023-03-12T13:09:56;100391.69;;;10.65;100.00
8140;BME280;4111;50.972;7.072;2023-03-12T13:12:42;100388.81;;;10.77;100.00
8140;BME280;4111;50.972;7.072;2023-03-12T13:20:23;100387.47;;;11.06;100.00
8140;BME280;4111;50.972;7.072;2023-03-12T13:25:52;100390.19;;;11.06;100.00
8140;BME280;4111;50.972;7.072;2023-03-12T13:30:52;100378.84;;;11.15;100.00
8140;BME280;4111;50.972;7.072;2023-03-12T13:33:35;100368.84;;;11.20;100.00
8140;BME280;4111;50.972;7.072;2023-03-12T13:36:25;100375.31;;;11.19;100.00
8140;BME280;4111;50.972;7.072;2023-03-12T13:46:59;100382.88;;;11.44;100.00
8140;BME280;4111;50.972;7.072;2023-03-12T13:49:33;100382.06;;;11.44;100.00
8140;BME280;4111;50.972;7.072;2023-03-12T13:52:17;100372.28;;;11.48;100.00
8140;BME280;4111;50.972;7.072;2023-03-12T13:54:46;100370.63;;;11.47;100.00
8140;BME280;4111;50.972;7.072;2023-03-12T13:59:57;100369.59;;;11.53;100.00
8140;BME280;4111;50.972;7.072;2023-03-12T14:02:28;100366.34;;;11.56;100.00
8140;BME280;4111;50.972;7.072;2023-03-12T14:05:05;100363.41;;;11.63;98.64
8140;BME280;4111;50.972;7.072;2023-03-12T14:07:48;100366.97;;;11.63;97.94
8140;BME280;4111;50.972;7.072;2023-03-12T14:16:01;100351.75;;;11.73;95.30
8140;BME280;4111;50.972;7.072;2023-03-12T14:18:33;100355.03;;;11.75;94.63
8140;BME280;4111;50.972;7.072;2023-03-12T14:21:04;100356.44;;;11.82;94.44
8140;BME280;4111;50.972;7.072;2023-03-12T14:23:36;100346.66;;;11.86;94.39
8140;BME280;4111;50.972;7.072;2023-03-12T14:26:04;100343.69;;;11.88;93.91
8140;BME280;4111;50.972;7.072;2023-03-12T14:28:37;100335.59;;;11.93;93.55
8140;BME280;4111;50.972;7.072;2023-03-12T14:31:12;100342.13;;;11.97;93.08
8140;BME280;4111;50.972;7.072;2023-03-12T14:36:17;100344.94;;;12.13;91.84
8140;BME280;4111;50.972;7.072;2023-03-12T14:38:47;100343.00;;;12.13;90.62
8140;BME280;4111;50.972;7.072;2023-03-12T14:41:22;100349.59;;;12.22;90.34
8140;BME280;4111;50.972;7.072;2023-03-12T14:43:52;100352.84;;;12.29;89.76
8140;BME280;4111;50.972;7.072;2023-03-12T14:46:21;100350.94;;;12.30;89.10
8140;BME280;4111;50.972;7.072;2023-03-12T14:48:50;100360.78;;;12.31;88.51
8140;BME280;4111;50.972;7.072;2023-03-12T14:51:28;100368.13;;;12.30;88.16
8140;BME280;4111;50.972;7.072;2023-03-12T14:54:01;100368.13;;;12.30;87.82
8140;BME280;4111;50.972;7.072;2023-03-12T14:56:30;100358.84;;;12.32;87.88
8140;BME280;4111;50.972;7.072;2023-03-12T14:59:18;100368.13;;;12.30;87.71
8140;BME280;4111;50.972;7.072;2023-03-12T15:01:46;100376.56;;;12.29;86.69
8140;BME280;4111;50.972;7.072;2023-03-12T15:04:18;100380.63;;;12.26;86.36
8140;BME280;4111;50.972;7.072;2023-03-12T15:06:48;100385.78;;;12.28;85.53
8140;BME280;4111;50.972;7.072;2023-03-12T15:09:18;100383.66;;;12.35;84.47
8140;BME280;4111;50.972;7.072;2023-03-12T15:11:52;100388.56;;;12.43;84.31
8140;BME280;4111;50.972;7.072;2023-03-12T15:14:20;100392.09;;;12.44;83.55